Steen, Indiana
Current Conditions -  °F | °C
As of 11:55 PM on Monday 26 Jan 2015 (Local Time) from KDCY Reporting Station
Unknown Precip Unknown Precip  
Wind Chill: 29°   Ceiling: 300
Heat Index: 29°   Visibility: 3mi
Dew Point: 26°   Wind: 3mph
Humidity: 87%   Direction: 160°SSE
Pressure: 29.92"   Gusts: NA
Location:  38.6719°N, 87.3001°W
Report Text: KDCY 270555Z AUTO 16003KT 3SM UP OVC003 M02/M03 A2992 RMK AO2 T10161035 11016 21027 410081027
Loading
Personal Weather Stations






























Interactive Weather Map New forecast layout! Learn more

10-Day Weather Forecast

Advertisements
Track Severe Weather on mobile